Time,TemperatureF,DewpointF,PressureIn,WindDirection,WindDirectionDegrees,WindSpeedMPH,WindSpeedGustMPH,Humidity,HourlyPrecipIn,Conditions,Clouds,dailyrainin,SoftwareType,DateUTC
2013-03-05 00:00:00,39.8,32.9,29.81,SSE,162,6.0,20.0,76,0.00,,,0.00,WUHU216DAVISVP2,2013-03-05 06:00:00,
2013-03-05 00:05:00,39.9,32.7,29.81,SSE,168,20.0,20.0,75,0.00,,,0.00,WUHU216DAVISVP2,2013-03-05 06:05:00,
2013-03-05 00:10:00,39.9,32.0,29.81,South,181,15.0,21.0,73,0.00,,,0.00,WUHU216DAVISVP2,2013-03-05 06:10:00,
2013-03-05 00:15:00,39.9,31.7,29.81,South,179,11.0,23.0,72,0.00,,,0.00,WUHU216DAVISVP2,2013-03-05 06:15:00,
2013-03-05 00:20:00,39.8,31.6,29.82,South,180,13.0,23.0,72,0.00,,,0.00,WUHU216DAVISVP2,2013-03-05 06:20:00,
2013-03-05 00:25:00,39.6,31.4,29.82,South,175,21.0,23.0,72,0.00,,,0.00,WUHU216DAVISVP2,2013-03-05 06:25:00,
2013-03-05 00:30:00,39.6,31.4,29.83,SSE,160,7.0,23.0,72,0.00,,,0.00,WUHU216DAVISVP2,2013-03-05 06:30:00,
2013-03-05 00:35:00,39.5,31.0,29.83,SE,141,13.0,24.0,71,0.00,,,0.00,WUHU216DAVISVP2,2013-03-05 06:35:00,
2013-03-05 00:40:00,39.4,30.9,29.83,SSE,158,15.0,24.0,71,0.00,,,0.00,WUHU216DAVISVP2,2013-03-05 06:40:00,
2013-03-05 00:45:00,39.3,30.8,29.85,South,187,9.0,24.0,71,0.00,,,0.00,WUHU216DAVISVP2,2013-03-05 06:45:00,
2013-03-05 00:50:00,39.3,30.8,29.85,SSE,162,8.0,24.0,71,0.00,,,0.00,WUHU216DAVISVP2,2013-03-05 06:50:00,
2013-03-05 00:55:00,39.2,30.7,29.86,SSE,148,10.0,24.0,71,0.00,,,0.00,WUHU216DAVISVP2,2013-03-05 06:55:00,
2013-03-05 01:00:00,39.0,30.5,29.86,South,177,11.0,24.0,71,0.00,,,0.00,WUHU216DAVISVP2,2013-03-05 07:00:00,
2013-03-05 01:05:00,38.8,30.3,29.85,South,180,16.0,24.0,71,0.00,,,0.00,WUHU216DAVISVP2,2013-03-05 07:05:00,
2013-03-05 01:10:00,38.6,30.1,29.85,SW,225,17.0,22.0,71,0.00,,,0.00,WUHU216DAVISVP2,2013-03-05 07:10:00,
2013-03-05 01:15:00,38.5,30.0,29.84,South,179,11.0,21.0,71,0.00,,,0.00,WUHU216DAVISVP2,2013-03-05 07:15:00,
2013-03-05 01:20:00,38.4,29.9,29.86,SE,144,8.0,20.0,71,0.00,,,0.00,WUHU216DAVISVP2,2013-03-05 07:20:00,
2013-03-05 01:25:00,38.2,29.7,29.86,SE,146,5.0,21.0,71,0.00,,,0.00,WUHU216DAVISVP2,2013-03-05 07:25:00,
2013-03-05 01:30:00,38.1,29.6,29.87,SSE,157,12.0,21.0,71,0.00,,,0.00,WUHU216DAVISVP2,2013-03-05 07:30:00,
2013-03-05 01:35:00,38.0,29.9,29.88,SSE,150,19.0,24.0,72,0.00,,,0.00,WUHU216DAVISVP2,2013-03-05 07:35:00,
2013-03-05 01:40:00,38.0,29.9,29.88,SSE,165,14.0,24.0,72,0.00,,,0.00,WUHU216DAVISVP2,2013-03-05 07:40:00,
2013-03-05 01:45:00,37.9,29.8,29.89,SSE,151,17.0,24.0,72,0.00,,,0.00,WUHU216DAVISVP2,2013-03-05 07:45:00,
2013-03-05 01:50:00,37.9,29.8,29.90,South,183,7.0,24.0,72,0.00,,,0.00,WUHU216DAVISVP2,2013-03-05 07:50:00,
2013-03-05 01:55:00,37.8,29.7,29.89,SSE,162,12.0,22.0,72,0.00,,,0.00,WUHU216DAVISVP2,2013-03-05 07:55:00,
2013-03-05 02:00:00,37.9,29.7,29.89,SSE,151,8.0,24.0,72,0.00,,,0.00,WUHU216DAVISVP2,2013-03-05 08:00:00,
2013-03-05 02:05:00,37.8,29.6,29.89,South,175,12.0,24.0,72,0.00,,,0.00,WUHU216DAVISVP2,2013-03-05 08:05:00,
2013-03-05 02:10:00,37.8,29.6,29.90,SSE,158,3.0,24.0,72,0.00,,,0.00,WUHU216DAVISVP2,2013-03-05 08:10:00,
2013-03-05 02:15:00,37.8,30.0,29.90,South,176,13.0,24.0,73,0.00,,,0.00,WUHU216DAVISVP2,2013-03-05 08:15:00,
2013-03-05 02:20:00,37.7,29.9,29.90,SSE,160,8.0,22.0,73,0.00,,,0.00,WUHU216DAVISVP2,2013-03-05 08:20:00,
2013-03-05 02:25:00,37.6,29.8,29.90,SSE,160,9.0,23.0,73,0.00,,,0.00,WUHU216DAVISVP2,2013-03-05 08:25:00,
2013-03-05 02:30:00,37.5,29.7,29.91,South,187,10.0,23.0,73,0.00,,,0.00,WUHU216DAVISVP2,2013-03-05 08:30:00,
2013-03-05 02:35:00,37.4,29.6,29.91,South,172,10.0,23.0,73,0.00,,,0.00,WUHU216DAVISVP2,2013-03-05 08:35:00,
2013-03-05 02:40:00,37.3,29.5,29.91,SSW,192,12.0,20.0,73,0.00,,,0.00,WUHU216DAVISVP2,2013-03-05 08:40:00,
2013-03-05 02:45:00,37.4,29.5,29.91,SSE,165,12.0,20.0,73,0.00,,,0.00,WUHU216DAVISVP2,2013-03-05 08:45:00,
2013-03-05 02:50:00,37.4,29.9,29.91,South,170,2.0,20.0,74,0.00,,,0.00,WUHU216DAVISVP2,2013-03-05 08:50:00,
2013-03-05 02:55:00,37.3,29.8,29.92,South,176,16.0,21.0,74,0.00,,,0.00,WUHU216DAVISVP2,2013-03-05 08:55:00,
2013-03-05 03:00:00,37.2,29.7,29.92,South,172,8.0,21.0,74,0.00,,,0.00,WUHU216DAVISVP2,2013-03-05 09:00:00,
2013-03-05 03:05:00,37.1,30.0,29.91,SSE,164,6.0,21.0,75,0.00,,,0.00,WUHU216DAVISVP2,2013-03-05 09:05:00,
2013-03-05 03:10:00,37.0,29.9,29.92,SE,141,16.0,23.0,75,0.00,,,0.00,WUHU216DAVISVP2,2013-03-05 09:10:00,
2013-03-05 03:15:00,37.0,30.1,29.93,ESE,118,20.0,24.0,76,0.00,,,0.00,WUHU216DAVISVP2,2013-03-05 09:15:00,
2013-03-05 03:20:00,36.9,30.7,29.93,SE,136,9.0,24.0,78,0.00,,,0.00,WUHU216DAVISVP2,2013-03-05 09:20:00,
2013-03-05 03:25:00,36.5,31.2,29.94,SSE,154,6.0,24.0,81,0.00,,,0.00,WUHU216DAVISVP2,2013-03-05 09:25:00,
2013-03-05 03:30:00,36.0,31.3,29.94,SE,143,12.0,23.0,83,0.00,,,0.00,WUHU216DAVISVP2,2013-03-05 09:30:00,
2013-03-05 03:35:00,35.5,31.4,29.94,SE,143,16.0,23.0,85,0.00,,,0.00,WUHU216DAVISVP2,2013-03-05 09:35:00,
2013-03-05 03:40:00,35.2,31.5,29.95,SSE,163,11.0,23.0,86,0.00,,,0.00,WUHU216DAVISVP2,2013-03-05 09:40:00,
2013-03-05 03:45:00,35.2,31.7,29.95,SE,140,8.0,18.0,87,0.00,,,0.00,WUHU216DAVISVP2,2013-03-05 09:45:00,
2013-03-05 03:50:00,35.0,31.8,29.95,SSE,148,8.0,18.0,88,0.00,,,0.00,WUHU216DAVISVP2,2013-03-05 09:50:00,
2013-03-05 03:55:00,34.8,31.6,29.96,SE,135,11.0,16.0,88,0.00,,,0.00,WUHU216DAVISVP2,2013-03-05 09:55:00,
2013-03-05 04:00:00,34.6,31.4,29.95,SSE,151,5.0,15.0,88,0.00,,,0.00,WUHU216DAVISVP2,2013-03-05 10:00:00,
2013-03-05 04:05:00,34.6,31.6,29.95,SE,131,5.0,15.0,89,0.00,,,0.00,WUHU216DAVISVP2,2013-03-05 10:05:00,
2013-03-05 04:10:00,34.4,31.4,29.95,SSE,164,14.0,15.0,89,0.01,,,0.01,WUHU216DAVISVP2,2013-03-05 10:10:00,
2013-03-05 04:15:00,34.2,31.5,29.95,SSE,152,7.0,15.0,90,0.01,,,0.01,WUHU216DAVISVP2,2013-03-05 10:15:00,
2013-03-05 04:20:00,33.9,31.3,29.95,South,174,8.0,16.0,90,0.01,,,0.01,WUHU216DAVISVP2,2013-03-05 10:20:00,
2013-03-05 04:25:00,33.8,31.4,29.96,SE,127,15.0,24.0,91,0.01,,,0.01,WUHU216DAVISVP2,2013-03-05 10:25:00,
2013-03-05 04:30:00,33.7,31.3,29.96,SE,144,12.0,24.0,91,0.02,,,0.02,WUHU216DAVISVP2,2013-03-05 10:30:00,
2013-03-05 04:35:00,33.6,31.2,29.97,SE,135,11.0,24.0,91,0.02,,,0.02,WUHU216DAVISVP2,2013-03-05 10:35:00,
2013-03-05 04:40:00,33.6,31.5,29.97,SSE,155,10.0,23.0,92,0.02,,,0.02,WUHU216DAVISVP2,2013-03-05 10:40:00,
2013-03-05 04:45:00,33.7,31.5,29.98,South,170,12.0,23.0,92,0.02,,,0.02,WUHU216DAVISVP2,2013-03-05 10:45:00,
2013-03-05 04:50:00,33.7,31.6,29.98,SE,144,10.0,23.0,92,0.02,,,0.02,WUHU216DAVISVP2,2013-03-05 10:50:00,
2013-03-05 04:55:00,33.8,31.7,29.99,SSE,148,13.0,23.0,92,0.02,,,0.02,WUHU216DAVISVP2,2013-03-05 10:55:00,
2013-03-05 05:00:00,34.1,31.9,29.99,South,170,14.0,23.0,92,0.03,,,0.03,WUHU216DAVISVP2,2013-03-05 11:00:00,
2013-03-05 05:05:00,34.1,32.0,29.99,SE,143,11.0,23.0,92,0.03,,,0.03,WUHU216DAVISVP2,2013-03-05 11:05:00,
2013-03-05 05:10:00,34.2,32.1,29.99,SSE,155,7.0,23.0,92,0.02,,,0.03,WUHU216DAVISVP2,2013-03-05 11:10:00,
2013-03-05 05:15:00,34.2,31.8,29.99,South,177,6.0,23.0,91,0.02,,,0.03,WUHU216DAVISVP2,2013-03-05 11:15:00,
2013-03-05 05:20:00,34.4,32.0,29.99,SSE,160,12.0,17.0,91,0.02,,,0.03,WUHU216DAVISVP2,2013-03-05 11:20:00,
2013-03-05 05:25:00,34.4,32.0,29.99,South,182,12.0,22.0,91,0.02,,,0.03,WUHU216DAVISVP2,2013-03-05 11:25:00,
2013-03-05 05:30:00,34.5,32.1,29.99,South,174,15.0,22.0,91,0.01,,,0.03,WUHU216DAVISVP2,2013-03-05 11:30:00,
2013-03-05 05:35:00,34.6,32.2,29.99,SSE,164,12.0,22.0,91,0.01,,,0.03,WUHU216DAVISVP2,2013-03-05 11:35:00,
2013-03-05 05:40:00,34.6,32.2,29.99,SSE,159,11.0,22.0,91,0.01,,,0.03,WUHU216DAVISVP2,2013-03-05 11:40:00,
2013-03-05 05:45:00,34.6,32.2,29.99,SE,146,23.0,23.0,91,0.01,,,0.03,WUHU216DAVISVP2,2013-03-05 11:45:00,
2013-03-05 05:50:00,34.6,31.9,30.00,SE,136,10.0,24.0,90,0.01,,,0.03,WUHU216DAVISVP2,2013-03-05 11:50:00,
2013-03-05 05:55:00,34.3,31.6,30.01,SSE,157,8.0,29.0,90,0.02,,,0.04,WUHU216DAVISVP2,2013-03-05 11:55:00,
2013-03-05 06:00:00,34.1,31.5,30.01,SSE,160,14.0,31.0,90,0.01,,,0.04,WUHU216DAVISVP2,2013-03-05 12:00:00,
2013-03-05 06:05:00,34.0,31.3,30.02,SSE,160,11.0,31.0,90,0.01,,,0.04,WUHU216DAVISVP2,2013-03-05 12:05:00,
2013-03-05 06:10:00,33.8,31.1,30.02,SSE,161,9.0,31.0,90,0.01,,,0.04,WUHU216DAVISVP2,2013-03-05 12:10:00,
2013-03-05 06:15:00,33.6,31.2,30.01,South,176,7.0,31.0,91,0.01,,,0.04,WUHU216DAVISVP2,2013-03-05 12:15:00,
2013-03-05 06:20:00,33.6,31.2,30.01,SSE,150,13.0,27.0,91,0.01,,,0.04,WUHU216DAVISVP2,2013-03-05 12:20:00,
2013-03-05 06:25:00,33.5,30.8,30.03,SSE,150,13.0,24.0,90,0.01,,,0.04,WUHU216DAVISVP2,2013-03-05 12:25:00,
2013-03-05 06:30:00,33.5,30.6,30.03,SE,133,11.0,24.0,89,0.01,,,0.04,WUHU216DAVISVP2,2013-03-05 12:30:00,
2013-03-05 06:35:00,33.5,30.5,30.03,SSE,158,16.0,24.0,89,0.01,,,0.04,WUHU216DAVISVP2,2013-03-05 12:35:00,
2013-03-05 06:40:00,33.5,30.6,30.03,SE,141,9.0,25.0,89,0.01,,,0.04,WUHU216DAVISVP2,2013-03-05 12:40:00,
2013-03-05 06:45:00,33.5,30.1,30.03,SSE,156,10.0,25.0,87,0.01,,,0.04,WUHU216DAVISVP2,2013-03-05 12:45:00,
2013-03-05 06:50:00,33.5,29.7,30.03,SE,140,3.0,25.0,86,0.01,,,0.04,WUHU216DAVISVP2,2013-03-05 12:50:00,
2013-03-05 06:55:00,33.5,29.5,30.03,SSE,148,12.0,25.0,85,0.00,,,0.04,WUHU216DAVISVP2,2013-03-05 12:55:00,
2013-03-05 07:00:00,33.6,29.8,30.03,SE,137,7.0,23.0,86,0.00,,,0.04,WUHU216DAVISVP2,2013-03-05 13:00:00,
2013-03-05 07:05:00,33.5,29.7,30.03,SSE,154,13.0,21.0,86,0.00,,,0.04,WUHU216DAVISVP2,2013-03-05 13:05:00,
2013-03-05 07:09:00,33.4,29.9,30.03,SSE,152,12.0,21.0,87,0.00,,,0.04,WUHU216DAVISVP2,2013-03-05 13:09:00,
2013-03-05 07:14:00,33.5,29.7,30.03,SE,143,10.0,18.0,86,0.00,,,0.04,WUHU216DAVISVP2,2013-03-05 13:14:00,
2013-03-05 07:19:00,33.4,29.9,30.03,SSE,154,4.0,17.0,87,0.00,,,0.04,WUHU216DAVISVP2,2013-03-05 13:19:00,
2013-03-05 07:24:00,33.4,29.9,30.03,SE,133,7.0,16.0,87,0.00,,,0.04,WUHU216DAVISVP2,2013-03-05 13:24:00,
2013-03-05 07:29:00,33.5,30.0,30.04,SE,133,11.0,15.0,87,0.00,,,0.04,WUHU216DAVISVP2,2013-03-05 13:29:00,
2013-03-05 07:34:00,33.6,30.1,30.04,SE,135,3.0,16.0,87,0.00,,,0.04,WUHU216DAVISVP2,2013-03-05 13:34:00,
2013-03-05 07:39:00,33.7,30.5,30.05,SE,130,14.0,16.0,88,0.00,,,0.04,WUHU216DAVISVP2,2013-03-05 13:39:00,
2013-03-05 07:44:00,34.0,30.5,30.05,SE,146,5.0,18.0,87,0.00,,,0.04,WUHU216DAVISVP2,2013-03-05 13:44:00,
2013-03-05 07:49:00,34.1,30.6,30.05,SE,137,4.0,18.0,87,0.00,,,0.04,WUHU216DAVISVP2,2013-03-05 13:49:00,
2013-03-05 07:54:00,34.2,30.7,30.05,SE,138,2.0,18.0,87,0.00,,,0.04,WUHU216DAVISVP2,2013-03-05 13:54:00,
2013-03-05 07:59:00,34.2,30.4,30.06,SE,133,4.0,18.0,86,0.00,,,0.04,WUHU216DAVISVP2,2013-03-05 13:59:00,
2013-03-05 08:04:00,34.2,30.5,30.06,ESE,121,10.0,17.0,86,0.00,,,0.04,WUHU216DAVISVP2,2013-03-05 14:04:00,
2013-03-05 08:09:00,34.3,30.5,30.06,SE,143,12.0,16.0,86,0.00,,,0.04,WUHU216DAVISVP2,2013-03-05 14:09:00,
2013-03-05 08:14:00,34.2,29.9,30.06,ESE,121,13.0,16.0,84,0.00,,,0.04,WUHU216DAVISVP2,2013-03-05 14:14:00,
2013-03-05 08:19:00,34.1,29.2,30.06,SE,131,14.0,26.0,82,0.00,,,0.04,WUHU216DAVISVP2,2013-03-05 14:19:00,
2013-03-05 08:24:00,34.0,29.4,30.07,SE,133,14.0,26.0,83,0.00,,,0.04,WUHU216DAVISVP2,2013-03-05 14:24:00,
2013-03-05 08:29:00,33.9,28.9,30.07,ESE,121,23.0,26.0,82,0.00,,,0.04,WUHU216DAVISVP2,2013-03-05 14:29:00,
2013-03-05 08:34:00,33.3,26.0,30.07,SE,139,17.0,26.0,74,0.00,,,0.04,WUHU216DAVISVP2,2013-03-05 14:34:00,
2013-03-05 08:39:00,33.0,24.3,30.08,SE,127,12.0,26.0,70,0.00,,,0.04,WUHU216DAVISVP2,2013-03-05 14:39:00,
2013-03-05 08:45:00,32.6,23.3,30.07,SE,127,14.0,28.0,68,0.00,,,0.04,WUHU216DAVISVP2,2013-03-05 14:45:00,
2013-03-05 08:50:00,32.3,23.0,30.08,SSE,152,9.0,28.0,68,0.00,,,0.04,WUHU216DAVISVP2,2013-03-05 14:50:00,
2013-03-05 08:55:00,32.3,21.9,30.08,SE,140,12.0,28.0,65,0.00,,,0.04,WUHU216DAVISVP2,2013-03-05 14:55:00,
2013-03-05 09:00:00,32.3,21.2,30.08,SE,138,14.0,32.0,63,0.00,,,0.04,WUHU216DAVISVP2,2013-03-05 15:00:00,
2013-03-05 09:05:00,32.2,19.9,30.08,SE,135,18.0,32.0,60,0.00,,,0.04,WUHU216DAVISVP2,2013-03-05 15:05:00,
2013-03-05 09:10:00,32.3,20.7,30.08,SE,132,5.0,32.0,62,0.00,,,0.04,WUHU216DAVISVP2,2013-03-05 15:10:00,
2013-03-05 09:15:00,32.1,19.8,30.09,SE,131,19.0,32.0,60,0.00,,,0.04,WUHU216DAVISVP2,2013-03-05 15:15:00,
2013-03-05 09:20:00,31.8,19.9,30.09,SE,146,10.0,29.0,61,0.00,,,0.04,WUHU216DAVISVP2,2013-03-05 15:20:00,
2013-03-05 09:25:00,31.9,20.4,30.09,South,173,6.0,28.0,62,0.00,,,0.04,WUHU216DAVISVP2,2013-03-05 15:25:00,
2013-03-05 09:30:00,31.9,20.4,30.10,SSW,210,10.0,28.0,62,0.00,,,0.04,WUHU216DAVISVP2,2013-03-05 15:30:00,
2013-03-05 09:35:00,31.9,20.1,30.09,SSE,149,22.0,25.0,61,0.00,,,0.04,WUHU216DAVISVP2,2013-03-05 15:35:00,
2013-03-05 09:40:00,31.8,20.3,30.10,SSE,166,24.0,24.0,62,0.00,,,0.04,WUHU216DAVISVP2,2013-03-05 15:40:00,
2013-03-05 09:45:00,31.7,20.6,30.10,SE,143,15.0,24.0,63,0.00,,,0.04,WUHU216DAVISVP2,2013-03-05 15:45:00,
2013-03-05 09:50:00,31.3,19.5,30.10,SE,136,11.0,29.0,61,0.00,,,0.04,WUHU216DAVISVP2,2013-03-05 15:50:00,
2013-03-05 09:55:00,31.1,19.3,30.10,SSE,154,14.0,29.0,61,0.00,,,0.04,WUHU216DAVISVP2,2013-03-05 15:55:00,
2013-03-05 10:00:00,31.2,19.7,30.11,SE,138,14.0,29.0,62,0.00,,,0.04,WUHU216DAVISVP2,2013-03-05 16:00:00,
2013-03-05 10:05:00,31.0,19.2,30.11,SE,145,7.0,29.0,61,0.00,,,0.04,WUHU216DAVISVP2,2013-03-05 16:05:00,
2013-03-05 10:10:00,31.4,19.2,30.11,SE,134,15.0,29.0,60,0.00,,,0.04,WUHU216DAVISVP2,2013-03-05 16:10:00,
2013-03-05 10:15:00,30.4,19.0,30.12,ESE,112,18.0,29.0,62,0.00,,,0.04,WUHU216DAVISVP2,2013-03-05 16:15:00,
2013-03-05 10:20:00,30.2,19.2,30.12,SE,137,10.0,24.0,63,0.00,,,0.04,WUHU216DAVISVP2,2013-03-05 16:20:00,
2013-03-05 10:25:00,30.3,18.9,30.12,SE,125,13.0,26.0,62,0.00,,,0.04,WUHU216DAVISVP2,2013-03-05 16:25:00,
2013-03-05 10:30:00,30.0,17.8,30.12,SE,127,17.0,26.0,60,0.00,,,0.04,WUHU216DAVISVP2,2013-03-05 16:30:00,
2013-03-05 10:35:00,30.0,17.5,30.12,SSW,198,5.0,26.0,59,0.00,,,0.04,WUHU216DAVISVP2,2013-03-05 16:35:00,
2013-03-05 10:40:00,30.0,17.5,30.12,SSE,148,13.0,28.0,59,0.00,,,0.04,WUHU216DAVISVP2,2013-03-05 16:40:00,
2013-03-05 10:45:00,30.0,16.7,30.13,ESE,104,16.0,28.0,57,0.00,,,0.04,WUHU216DAVISVP2,2013-03-05 16:45:00,
2013-03-05 10:50:00,30.1,17.2,30.12,ESE,121,13.0,28.0,58,0.00,,,0.04,WUHU216DAVISVP2,2013-03-05 16:50:00,
2013-03-05 10:55:00,30.5,17.1,30.13,SE,145,14.0,28.0,57,0.00,,,0.04,WUHU216DAVISVP2,2013-03-05 16:55:00,
2013-03-05 11:00:00,30.5,17.5,30.13,SE,130,16.0,28.0,58,0.00,,,0.04,WUHU216DAVISVP2,2013-03-05 17:00:00,
2013-03-05 11:05:00,30.2,16.3,30.13,SSE,148,15.0,31.0,56,0.00,,,0.04,WUHU216DAVISVP2,2013-03-05 17:05:00,
2013-03-05 11:10:00,30.3,16.5,30.13,SE,132,18.0,31.0,56,0.00,,,0.04,WUHU216DAVISVP2,2013-03-05 17:10:00,
2013-03-05 11:15:00,29.8,15.6,30.14,ESE,103,17.0,32.0,55,0.00,,,0.04,WUHU216DAVISVP2,2013-03-05 17:15:00,
2013-03-05 11:20:00,30.2,16.4,30.14,ESE,117,17.0,32.0,56,0.00,,,0.04,WUHU216DAVISVP2,2013-03-05 17:20:00,
2013-03-05 11:25:00,30.2,16.4,30.14,SE,144,18.0,32.0,56,0.00,,,0.04,WUHU216DAVISVP2,2013-03-05 17:25:00,
2013-03-05 11:30:00,30.0,16.2,30.14,ESE,110,16.0,32.0,56,0.00,,,0.04,WUHU216DAVISVP2,2013-03-05 17:30:00,
2013-03-05 11:35:00,30.2,16.0,30.14,SE,145,20.0,31.0,55,0.00,,,0.04,WUHU216DAVISVP2,2013-03-05 17:35:00,
2013-03-05 11:40:00,30.0,16.2,30.14,ESE,114,22.0,31.0,56,0.00,,,0.04,WUHU216DAVISVP2,2013-03-05 17:40:00,
2013-03-05 11:45:00,29.9,15.2,30.14,SE,139,18.0,31.0,54,0.00,,,0.04,WUHU216DAVISVP2,2013-03-05 17:45:00,
2013-03-05 11:50:00,30.3,16.1,30.14,ESE,118,20.0,31.0,55,0.00,,,0.04,WUHU216DAVISVP2,2013-03-05 17:50:00,
2013-03-05 11:55:00,30.3,16.1,30.15,SE,127,12.0,29.0,55,0.00,,,0.04,WUHU216DAVISVP2,2013-03-05 17:55:00,
2013-03-05 12:00:00,30.6,16.3,30.15,SE,136,22.0,31.0,55,0.00,,,0.04,WUHU216DAVISVP2,2013-03-05 18:00:00,
2013-03-05 12:05:00,30.0,15.8,30.15,SE,143,15.0,31.0,55,0.00,,,0.04,WUHU216DAVISVP2,2013-03-05 18:05:00,
2013-03-05 12:10:00,30.3,16.1,30.14,ESE,112,16.0,31.0,55,0.00,,,0.04,WUHU216DAVISVP2,2013-03-05 18:10:00,
2013-03-05 12:15:00,30.8,16.1,30.14,SE,144,8.0,29.0,54,0.00,,,0.04,WUHU216DAVISVP2,2013-03-05 18:15:00,
2013-03-05 12:20:00,30.6,16.4,30.14,SE,138,14.0,29.0,55,0.00,,,0.04,WUHU216DAVISVP2,2013-03-05 18:20:00,
2013-03-05 12:25:00,31.0,17.6,30.15,SE,133,15.0,28.0,57,0.00,,,0.04,WUHU216DAVISVP2,2013-03-05 18:25:00,
2013-03-05 12:30:00,31.5,18.0,30.14,ESE,118,13.0,27.0,57,0.00,,,0.04,WUHU216DAVISVP2,2013-03-05 18:30:00,
2013-03-05 12:35:00,31.4,17.5,30.14,SE,127,15.0,27.0,56,0.00,,,0.04,WUHU216DAVISVP2,2013-03-05 18:35:00,
2013-03-05 12:40:00,30.7,16.5,30.14,SSE,150,9.0,28.0,55,0.00,,,0.04,WUHU216DAVISVP2,2013-03-05 18:40:00,
2013-03-05 12:45:00,31.2,18.2,30.14,SE,124,18.0,28.0,58,0.00,,,0.04,WUHU216DAVISVP2,2013-03-05 18:45:00,
2013-03-05 12:50:00,30.9,16.6,30.15,SSE,147,20.0,28.0,55,0.00,,,0.04,WUHU216DAVISVP2,2013-03-05 18:50:00,
2013-03-05 12:55:00,30.7,16.9,30.14,ESE,115,18.0,30.0,56,0.00,,,0.04,WUHU216DAVISVP2,2013-03-05 18:55:00,
2013-03-05 13:00:00,31.1,17.2,30.14,ESE,102,14.0,30.0,56,0.00,,,0.04,WUHU216DAVISVP2,2013-03-05 19:00:00,
2013-03-05 13:05:00,31.3,17.0,30.14,SSE,158,14.0,30.0,55,0.00,,,0.04,WUHU216DAVISVP2,2013-03-05 19:05:00,
2013-03-05 13:10:00,31.6,17.3,30.14,SSE,147,21.0,30.0,55,0.00,,,0.04,WUHU216DAVISVP2,2013-03-05 19:10:00,
2013-03-05 13:15:00,31.9,18.0,30.14,SE,141,29.0,30.0,56,0.00,,,0.04,WUHU216DAVISVP2,2013-03-05 19:15:00,
2013-03-05 13:20:00,31.2,16.9,30.15,SE,141,20.0,31.0,55,0.00,,,0.04,WUHU216DAVISVP2,2013-03-05 19:20:00,
2013-03-05 13:25:00,31.6,17.7,30.14,ESE,113,10.0,31.0,56,0.00,,,0.04,WUHU216DAVISVP2,2013-03-05 19:25:00,
2013-03-05 13:30:00,31.8,17.4,30.15,SE,125,29.0,31.0,55,0.00,,,0.04,WUHU216DAVISVP2,2013-03-05 19:30:00,
2013-03-05 13:35:00,31.8,17.5,30.15,SE,125,14.0,31.0,55,0.00,,,0.04,WUHU216DAVISVP2,2013-03-05 19:35:00,
2013-03-05 13:40:00,32.0,18.1,30.14,SSE,154,20.0,31.0,56,0.00,,,0.04,WUHU216DAVISVP2,2013-03-05 19:40:00,
2013-03-05 13:45:00,32.1,18.1,30.14,SE,134,17.0,31.0,56,0.00,,,0.04,WUHU216DAVISVP2,2013-03-05 19:45:00,
2013-03-05 13:50:00,32.4,19.3,30.14,ESE,116,13.0,30.0,58,0.00,,,0.04,WUHU216DAVISVP2,2013-03-05 19:50:00,
2013-03-05 13:55:00,32.9,19.0,30.15,SE,133,14.0,33.0,56,0.00,,,0.04,WUHU216DAVISVP2,2013-03-05 19:55:00,
2013-03-05 14:00:00,32.7,18.3,30.15,SE,128,17.0,38.0,55,0.00,,,0.04,WUHU216DAVISVP2,2013-03-05 20:00:00,
2013-03-05 14:05:00,33.1,18.7,30.15,ESE,114,25.0,38.0,55,0.00,,,0.04,WUHU216DAVISVP2,2013-03-05 20:05:00,
2013-03-05 14:10:00,32.7,18.7,30.15,SE,128,14.0,38.0,56,0.00,,,0.04,WUHU216DAVISVP2,2013-03-05 20:10:00,
2013-03-05 14:15:00,33.0,18.5,30.15,SE,137,22.0,38.0,55,0.00,,,0.04,WUHU216DAVISVP2,2013-03-05 20:15:00,
2013-03-05 14:20:00,32.9,18.5,30.15,SE,135,15.0,34.0,55,0.00,,,0.04,WUHU216DAVISVP2,2013-03-05 20:20:00,
2013-03-05 14:25:00,33.1,19.5,30.15,SE,146,11.0,36.0,57,0.00,,,0.04,WUHU216DAVISVP2,2013-03-05 20:25:00,
2013-03-05 14:30:00,33.3,19.3,30.14,ESE,102,16.0,36.0,56,0.00,,,0.04,WUHU216DAVISVP2,2013-03-05 20:30:00,
2013-03-05 14:35:00,32.8,18.9,30.15,SSE,150,18.0,36.0,56,0.00,,,0.04,WUHU216DAVISVP2,2013-03-05 20:35:00,
2013-03-05 14:40:00,33.3,19.7,30.15,SE,137,19.0,36.0,57,0.00,,,0.04,WUHU216DAVISVP2,2013-03-05 20:40:00,
2013-03-05 14:45:00,33.4,19.4,30.15,SE,137,17.0,31.0,56,0.00,,,0.04,WUHU216DAVISVP2,2013-03-05 20:45:00,
2013-03-05 14:50:00,33.8,19.7,30.15,ESE,121,25.0,31.0,56,0.00,,,0.04,WUHU216DAVISVP2,2013-03-05 20:50:00,
2013-03-05 14:55:00,34.4,19.9,30.15,SSE,147,18.0,31.0,55,0.00,,,0.04,WUHU216DAVISVP2,2013-03-05 20:55:00,
2013-03-05 15:00:00,33.7,19.3,30.16,SE,126,17.0,32.0,55,0.00,,,0.04,WUHU216DAVISVP2,2013-03-05 21:00:00,
2013-03-05 15:05:00,33.0,19.1,30.16,SE,142,19.0,32.0,56,0.00,,,0.04,WUHU216DAVISVP2,2013-03-05 21:05:00,
2013-03-05 15:10:00,33.6,20.5,30.16,SE,126,12.0,32.0,58,0.00,,,0.04,WUHU216DAVISVP2,2013-03-05 21:10:00,
2013-03-05 15:15:00,34.8,20.3,30.16,SE,137,22.0,32.0,55,0.00,,,0.04,WUHU216DAVISVP2,2013-03-05 21:15:00,
2013-03-05 15:20:00,35.4,20.9,30.16,SE,124,10.0,30.0,55,0.00,,,0.04,WUHU216DAVISVP2,2013-03-05 21:20:00,
2013-03-05 15:25:00,34.6,20.1,30.16,SE,124,13.0,32.0,55,0.00,,,0.04,WUHU216DAVISVP2,2013-03-05 21:25:00,
2013-03-05 15:30:00,34.2,20.5,30.16,East,91,14.0,32.0,57,0.00,,,0.04,WUHU216DAVISVP2,2013-03-05 21:30:00,
2013-03-05 15:35:00,34.6,20.5,30.16,SSE,154,14.0,32.0,56,0.00,,,0.04,WUHU216DAVISVP2,2013-03-05 21:35:00,
2013-03-05 15:40:00,34.9,21.2,30.16,SE,125,15.0,32.0,57,0.00,,,0.04,WUHU216DAVISVP2,2013-03-05 21:40:00,
2013-03-05 15:45:00,35.6,21.5,30.17,ESE,108,11.0,29.0,56,0.00,,,0.04,WUHU216DAVISVP2,2013-03-05 21:45:00,
2013-03-05 15:50:00,35.2,21.1,30.17,SE,144,15.0,30.0,56,0.00,,,0.04,WUHU216DAVISVP2,2013-03-05 21:50:00,
2013-03-05 15:55:00,35.1,21.5,30.17,South,185,17.0,30.0,57,0.00,,,0.04,WUHU216DAVISVP2,2013-03-05 21:55:00,
2013-03-05 16:00:00,35.1,21.8,30.17,ESE,118,13.0,30.0,58,0.00,,,0.04,WUHU216DAVISVP2,2013-03-05 22:00:00,
2013-03-05 16:05:00,35.2,21.5,30.17,SE,141,19.0,30.0,57,0.00,,,0.04,WUHU216DAVISVP2,2013-03-05 22:05:00,
2013-03-05 16:10:00,34.8,20.7,30.17,SE,137,22.0,30.0,56,0.00,,,0.04,WUHU216DAVISVP2,2013-03-05 22:10:00,
2013-03-05 16:15:00,34.8,21.5,30.17,SE,125,14.0,30.0,58,0.00,,,0.04,WUHU216DAVISVP2,2013-03-05 22:15:00,
2013-03-05 16:20:00,35.2,21.9,30.17,SSE,160,17.0,30.0,58,0.00,,,0.04,WUHU216DAVISVP2,2013-03-05 22:20:00,
2013-03-05 16:25:00,35.7,22.4,30.17,SSE,156,19.0,30.0,58,0.00,,,0.04,WUHU216DAVISVP2,2013-03-05 22:25:00,
2013-03-05 16:30:00,35.6,21.9,30.17,SE,126,14.0,34.0,57,0.00,,,0.04,WUHU216DAVISVP2,2013-03-05 22:30:00,
2013-03-05 16:35:00,35.4,21.7,30.18,SE,133,15.0,34.0,57,0.00,,,0.04,WUHU216DAVISVP2,2013-03-05 22:35:00,
2013-03-05 16:40:00,35.4,22.1,30.18,ESE,106,24.0,34.0,58,0.00,,,0.04,WUHU216DAVISVP2,2013-03-05 22:40:00,
2013-03-05 16:45:00,35.7,22.4,30.18,ESE,116,11.0,34.0,58,0.00,,,0.04,WUHU216DAVISVP2,2013-03-05 22:45:00,
2013-03-05 16:50:00,36.3,22.5,30.18,SSE,151,24.0,30.0,57,0.00,,,0.04,WUHU216DAVISVP2,2013-03-05 22:50:00,
2013-03-05 16:55:00,36.6,22.8,30.18,SE,132,15.0,30.0,57,0.00,,,0.04,WUHU216DAVISVP2,2013-03-05 22:55:00,
2013-03-05 17:00:00,36.7,22.9,30.18,SE,137,13.0,30.0,57,0.00,,,0.04,WUHU216DAVISVP2,2013-03-05 23:00:00,
2013-03-05 17:05:00,36.9,23.1,30.18,ESE,122,12.0,30.0,57,0.00,,,0.04,WUHU216DAVISVP2,2013-03-05 23:05:00,
2013-03-05 17:10:00,37.0,23.2,30.18,SSE,152,8.0,30.0,57,0.00,,,0.04,WUHU216DAVISVP2,2013-03-05 23:10:00,
2013-03-05 17:15:00,37.1,23.3,30.18,SE,135,23.0,30.0,57,0.00,,,0.04,WUHU216DAVISVP2,2013-03-05 23:15:00,
2013-03-05 17:20:00,37.4,24.0,30.19,ESE,116,11.0,28.0,58,0.00,,,0.04,WUHU216DAVISVP2,2013-03-05 23:20:00,
2013-03-05 17:25:00,37.2,23.8,30.19,SE,132,14.0,28.0,58,0.00,,,0.04,WUHU216DAVISVP2,2013-03-05 23:25:00,
2013-03-05 17:30:00,37.0,24.0,30.19,ESE,119,18.0,26.0,59,0.00,,,0.04,WUHU216DAVISVP2,2013-03-05 23:30:00,
2013-03-05 17:35:00,37.0,24.1,30.19,SSE,164,13.0,24.0,59,0.00,,,0.04,WUHU216DAVISVP2,2013-03-05 23:35:00,
2013-03-05 17:40:00,37.1,23.7,30.19,SSE,150,22.0,24.0,58,0.00,,,0.04,WUHU216DAVISVP2,2013-03-05 23:40:00,
2013-03-05 17:45:00,36.9,23.6,30.20,ESE,106,10.0,25.0,58,0.00,,,0.04,WUHU216DAVISVP2,2013-03-05 23:45:00,
2013-03-05 17:50:00,36.9,23.5,30.20,SE,144,4.0,25.0,58,0.00,,,0.04,WUHU216DAVISVP2,2013-03-05 23:50:00,
2013-03-05 17:55:00,36.7,23.8,30.20,SE,137,13.0,24.0,59,0.00,,,0.04,WUHU216DAVISVP2,2013-03-05 23:55:00,
2013-03-05 18:00:00,36.8,23.9,30.21,SSE,159,16.0,24.0,59,0.00,,,0.04,WUHU216DAVISVP2,2013-03-06 00:00:00,
2013-03-05 18:05:00,36.6,23.6,30.21,South,173,12.0,27.0,59,0.00,,,0.04,WUHU216DAVISVP2,2013-03-06 00:05:00,
2013-03-05 18:10:00,36.4,23.9,30.21,South,175,10.0,27.0,60,0.00,,,0.04,WUHU216DAVISVP2,2013-03-06 00:10:00,
2013-03-05 18:15:00,36.4,23.9,30.21,SSE,158,16.0,27.0,60,0.00,,,0.04,WUHU216DAVISVP2,2013-03-06 00:15:00,
2013-03-05 18:20:00,36.4,24.2,30.21,SE,137,14.0,27.0,61,0.00,,,0.04,WUHU216DAVISVP2,2013-03-06 00:20:00,
2013-03-05 18:25:00,36.2,24.1,30.21,SE,130,12.0,23.0,61,0.00,,,0.04,WUHU216DAVISVP2,2013-03-06 00:25:00,
2013-03-05 18:30:00,36.2,24.1,30.22,SE,135,7.0,23.0,61,0.00,,,0.04,WUHU216DAVISVP2,2013-03-06 00:30:00,
2013-03-05 18:35:00,36.0,23.9,30.22,SSE,148,14.0,19.0,61,0.00,,,0.04,WUHU216DAVISVP2,2013-03-06 00:35:00,
2013-03-05 18:40:00,36.0,23.9,30.22,SE,132,7.0,23.0,61,0.00,,,0.04,WUHU216DAVISVP2,2013-03-06 00:40:00,
2013-03-05 18:45:00,35.9,23.8,30.22,SE,140,9.0,24.0,61,0.00,,,0.04,WUHU216DAVISVP2,2013-03-06 00:45:00,
2013-03-05 18:50:00,35.6,23.6,30.22,SSE,156,10.0,24.0,61,0.00,,,0.04,WUHU216DAVISVP2,2013-03-06 00:50:00,
2013-03-05 18:55:00,35.5,23.4,30.23,SSE,148,12.0,23.0,61,0.00,,,0.04,WUHU216DAVISVP2,2013-03-06 00:55:00,
2013-03-05 19:00:00,35.6,23.5,30.23,SE,137,12.0,23.0,61,0.00,,,0.04,WUHU216DAVISVP2,2013-03-06 01:00:00,
2013-03-05 19:05:00,35.4,23.0,30.23,ESE,107,18.0,26.0,60,0.00,,,0.04,WUHU216DAVISVP2,2013-03-06 01:05:00,
2013-03-05 19:10:00,35.2,22.7,30.23,SSE,164,20.0,26.0,60,0.00,,,0.04,WUHU216DAVISVP2,2013-03-06 01:10:00,
2013-03-05 19:15:00,34.9,22.5,30.23,SE,143,17.0,26.0,60,0.00,,,0.04,WUHU216DAVISVP2,2013-03-06 01:15:00,
2013-03-05 19:20:00,34.6,22.2,30.23,SE,144,15.0,27.0,60,0.00,,,0.04,WUHU216DAVISVP2,2013-03-06 01:20:00,
2013-03-05 19:25:00,34.4,22.4,30.23,SSE,155,11.0,27.0,61,0.00,,,0.04,WUHU216DAVISVP2,2013-03-06 01:25:00,
2013-03-05 19:30:00,34.1,22.1,30.23,SSE,157,7.0,27.0,61,0.00,,,0.04,WUHU216DAVISVP2,2013-03-06 01:30:00,
2013-03-05 19:35:00,33.9,22.3,30.23,SSE,158,12.0,23.0,62,0.00,,,0.04,WUHU216DAVISVP2,2013-03-06 01:35:00,
2013-03-05 19:40:00,33.7,22.1,30.24,SE,146,11.0,22.0,62,0.00,,,0.04,WUHU216DAVISVP2,2013-03-06 01:40:00,
2013-03-05 19:45:00,33.4,22.3,30.24,SE,140,10.0,19.0,63,0.00,,,0.04,WUHU216DAVISVP2,2013-03-06 01:45:00,
2013-03-05 19:50:00,33.3,22.1,30.24,SSE,158,2.0,19.0,63,0.00,,,0.04,WUHU216DAVISVP2,2013-03-06 01:50:00,
2013-03-05 19:55:00,33.1,22.3,30.25,SSE,150,7.0,19.0,64,0.00,,,0.04,WUHU216DAVISVP2,2013-03-06 01:55:00,
2013-03-05 20:00:00,32.8,22.4,30.25,SE,139,4.0,18.0,65,0.00,,,0.04,WUHU216DAVISVP2,2013-03-06 02:00:00,
2013-03-05 20:05:00,32.6,22.2,30.25,SSE,164,4.0,15.0,65,0.00,,,0.04,WUHU216DAVISVP2,2013-03-06 02:05:00,
2013-03-05 20:10:00,32.5,22.1,30.26,SSE,157,8.0,15.0,65,0.00,,,0.04,WUHU216DAVISVP2,2013-03-06 02:10:00,
2013-03-05 20:15:00,32.2,21.8,30.26,SSE,155,12.0,16.0,65,0.00,,,0.04,WUHU216DAVISVP2,2013-03-06 02:15:00,
2013-03-05 20:20:00,32.1,21.7,30.26,SSE,150,7.0,16.0,65,0.00,,,0.04,WUHU216DAVISVP2,2013-03-06 02:20:00,
2013-03-05 20:25:00,32.0,21.6,30.26,SSE,149,11.0,16.0,65,0.00,,,0.04,WUHU216DAVISVP2,2013-03-06 02:25:00,
2013-03-05 20:30:00,31.8,21.5,30.26,SE,146,7.0,17.0,65,0.00,,,0.04,WUHU216DAVISVP2,2013-03-06 02:30:00,
2013-03-05 20:35:00,31.7,21.3,30.27,SSE,160,4.0,19.0,65,0.00,,,0.04,WUHU216DAVISVP2,2013-03-06 02:35:00,
2013-03-05 20:39:00,31.6,21.6,30.26,SE,145,3.0,19.0,66,0.00,,,0.04,WUHU216DAVISVP2,2013-03-06 02:39:00,
2013-03-05 20:44:00,31.3,21.4,30.26,SE,143,8.0,19.0,66,0.00,,,0.04,WUHU216DAVISVP2,2013-03-06 02:44:00,
2013-03-05 20:49:00,31.2,21.2,30.26,SSE,166,8.0,19.0,66,0.00,,,0.04,WUHU216DAVISVP2,2013-03-06 02:49:00,
2013-03-05 20:54:00,31.1,21.5,30.27,SSE,156,9.0,15.0,67,0.00,,,0.04,WUHU216DAVISVP2,2013-03-06 02:54:00,
2013-03-05 20:59:00,30.9,21.2,30.27,South,187,4.0,15.0,67,0.00,,,0.04,WUHU216DAVISVP2,2013-03-06 02:59:00,
2013-03-05 21:04:00,30.7,21.1,30.27,SSE,150,3.0,15.0,67,0.00,,,0.04,WUHU216DAVISVP2,2013-03-06 03:04:00,
2013-03-05 21:09:00,30.6,21.0,30.27,SSE,162,3.0,15.0,67,0.00,,,0.04,WUHU216DAVISVP2,2013-03-06 03:09:00,
2013-03-05 21:14:00,30.5,21.2,30.28,SE,141,14.0,17.0,68,0.00,,,0.04,WUHU216DAVISVP2,2013-03-06 03:14:00,
2013-03-05 21:19:00,30.4,21.2,30.28,SSE,156,9.0,17.0,68,0.00,,,0.04,WUHU216DAVISVP2,2013-03-06 03:19:00,
2013-03-05 21:24:00,30.2,21.0,30.28,SSE,158,7.0,17.0,68,0.00,,,0.04,WUHU216DAVISVP2,2013-03-06 03:24:00,
2013-03-05 21:29:00,30.0,21.1,30.28,SSE,152,8.0,17.0,69,0.00,,,0.04,WUHU216DAVISVP2,2013-03-06 03:29:00,
2013-03-05 21:34:00,30.0,21.1,30.28,SSE,153,6.0,16.0,69,0.00,,,0.04,WUHU216DAVISVP2,2013-03-06 03:34:00,
2013-03-05 21:39:00,29.7,21.2,30.29,SSE,164,14.0,16.0,70,0.00,,,0.04,WUHU216DAVISVP2,2013-03-06 03:39:00,
2013-03-05 21:44:00,29.6,21.1,30.29,SSE,168,4.0,16.0,70,0.00,,,0.04,WUHU216DAVISVP2,2013-03-06 03:44:00,
2013-03-05 21:49:00,29.5,21.0,30.29,SE,146,6.0,16.0,70,0.00,,,0.04,WUHU216DAVISVP2,2013-03-06 03:49:00,
2013-03-05 21:54:00,29.4,20.8,30.29,SSE,162,9.0,16.0,70,0.00,,,0.04,WUHU216DAVISVP2,2013-03-06 03:54:00,
2013-03-05 21:59:00,29.2,20.7,30.29,SE,143,4.0,16.0,70,0.00,,,0.04,WUHU216DAVISVP2,2013-03-06 03:59:00,
2013-03-05 22:04:00,29.2,20.7,30.29,SSE,161,7.0,16.0,70,0.00,,,0.04,WUHU216DAVISVP2,2013-03-06 04:04:00,
2013-03-05 22:09:00,29.2,20.7,30.29,SE,135,11.0,15.0,70,0.00,,,0.04,WUHU216DAVISVP2,2013-03-06 04:09:00,
2013-03-05 22:14:00,29.2,20.7,30.29,South,186,4.0,15.0,70,0.00,,,0.04,WUHU216DAVISVP2,2013-03-06 04:14:00,
2013-03-05 22:19:00,29.0,20.5,30.30,SSE,150,5.0,15.0,70,0.00,,,0.04,WUHU216DAVISVP2,2013-03-06 04:19:00,
2013-03-05 22:24:00,28.9,20.4,30.30,SSE,155,10.0,15.0,70,0.00,,,0.04,WUHU216DAVISVP2,2013-03-06 04:24:00,
2013-03-05 22:29:00,28.9,20.7,30.30,SSE,155,6.0,15.0,71,0.00,,,0.04,WUHU216DAVISVP2,2013-03-06 04:29:00,
2013-03-05 22:34:00,28.8,20.3,30.30,SE,146,10.0,15.0,70,0.00,,,0.04,WUHU216DAVISVP2,2013-03-06 04:34:00,
2013-03-05 22:39:00,28.7,20.5,30.30,SE,127,5.0,15.0,71,0.00,,,0.04,WUHU216DAVISVP2,2013-03-06 04:39:00,
2013-03-05 22:44:00,28.6,20.4,30.30,SSE,158,4.0,15.0,71,0.00,,,0.04,WUHU216DAVISVP2,2013-03-06 04:44:00,
2013-03-05 22:49:00,28.4,20.3,30.30,SE,142,4.0,15.0,71,0.00,,,0.04,WUHU216DAVISVP2,2013-03-06 04:49:00,
2013-03-05 22:54:00,28.3,20.2,30.30,SSE,147,10.0,14.0,71,0.00,,,0.04,WUHU216DAVISVP2,2013-03-06 04:54:00,
2013-03-05 22:59:00,28.3,20.2,30.30,SSE,155,5.0,16.0,71,0.00,,,0.04,WUHU216DAVISVP2,2013-03-06 04:59:00,
2013-03-05 23:00:00,28.3,20.2,30.30,SSE,153,6.0,16.0,71,0.00,,,0.04,WUHU216DAVISVP2,2013-03-06 05:00:00,
2013-03-05 23:05:00,28.2,20.0,30.30,SSE,156,5.0,16.0,71,0.00,,,0.04,WUHU216DAVISVP2,2013-03-06 05:05:00,
2013-03-05 23:10:00,28.2,20.0,30.30,SSE,150,13.0,17.0,71,0.00,,,0.04,WUHU216DAVISVP2,2013-03-06 05:10:00,
2013-03-05 23:15:00,28.3,19.8,30.30,SE,129,11.0,20.0,70,0.00,,,0.04,WUHU216DAVISVP2,2013-03-06 05:15:00,
2013-03-05 23:20:00,28.2,19.8,30.30,SE,144,9.0,20.0,70,0.00,,,0.04,WUHU216DAVISVP2,2013-03-06 05:20:00,
2013-03-05 23:25:00,28.1,19.7,30.30,SSE,152,6.0,20.0,70,0.00,,,0.04,WUHU216DAVISVP2,2013-03-06 05:25:00,
2013-03-05 23:30:00,28.0,19.9,30.30,SSE,151,3.0,20.0,71,0.00,,,0.04,WUHU216DAVISVP2,2013-03-06 05:30:00,
2013-03-05 23:35:00,27.9,19.8,30.30,South,183,2.0,14.0,71,0.00,,,0.04,WUHU216DAVISVP2,2013-03-06 05:35:00,
2013-03-05 23:40:00,27.7,19.9,30.30,SE,145,5.0,13.0,72,0.00,,,0.04,WUHU216DAVISVP2,2013-03-06 05:40:00,
2013-03-05 23:45:00,27.7,19.6,30.29,SE,146,5.0,19.0,71,0.00,,,0.04,WUHU216DAVISVP2,2013-03-06 05:45:00,
2013-03-05 23:50:00,27.8,19.6,30.29,South,183,6.0,19.0,71,0.00,,,0.04,WUHU216DAVISVP2,2013-03-06 05:50:00,
2013-03-05 23:55:00,27.8,19.6,30.30,SE,141,8.0,19.0,71,0.00,,,0.04,WUHU216DAVISVP2,2013-03-06 05:55:00,